sensor_id;sensor_type;location;lat;lon;timestamp;pressure;altitude;pressure_sealevel;temperature;humidity
39243;BME280;29823;47.404;8.566;2022-07-23T00:00:33;96600.00;;;21.24;100.00
39243;BME280;29823;47.404;8.566;2022-07-23T00:03:05;96598.47;;;21.18;100.00
39243;BME280;29823;47.404;8.566;2022-07-23T00:05:32;96601.19;;;21.18;100.00
39243;BME280;29823;47.404;8.566;2022-07-23T00:08:02;96589.81;;;20.79;100.00
39243;BME280;29823;47.404;8.566;2022-07-23T00:10:31;96594.13;;;20.80;100.00
39243;BME280;29823;47.404;8.566;2022-07-23T00:13:01;96588.78;;;20.75;100.00
39243;BME280;29823;47.404;8.566;2022-07-23T00:15:29;96581.84;;;20.64;100.00
39243;BME280;29823;47.404;8.566;2022-07-23T00:17:57;96596.72;;;20.72;100.00
39243;BME280;29823;47.404;8.566;2022-07-23T00:20:24;96594.34;;;20.65;100.00
39243;BME280;29823;47.404;8.566;2022-07-23T00:22:54;96576.00;;;20.57;100.00
39243;BME280;29823;47.404;8.566;2022-07-23T00:25:22;96556.31;;;20.65;100.00
39243;BME280;29823;47.404;8.566;2022-07-23T00:27:56;96562.84;;;20.64;100.00
39243;BME280;29823;47.404;8.566;2022-07-23T00:30:26;96556.00;;;20.48;100.00
39243;BME280;29823;47.404;8.566;2022-07-23T00:32:58;96549.69;;;20.71;100.00
39243;BME280;29823;47.404;8.566;2022-07-23T00:35:27;96546.97;;;20.53;100.00
39243;BME280;29823;47.404;8.566;2022-07-23T00:37:57;96548.38;;;20.08;100.00
39243;BME280;29823;47.404;8.566;2022-07-23T00:40:25;96556.28;;;20.05;100.00
39243;BME280;29823;47.404;8.566;2022-07-23T00:42:54;96543.03;;;19.98;100.00
39243;BME280;29823;47.404;8.566;2022-07-23T00:45:21;96535.34;;;20.05;100.00
39243;BME280;29823;47.404;8.566;2022-07-23T00:47:51;96536.06;;;19.92;100.00
39243;BME280;29823;47.404;8.566;2022-07-23T00:50:18;96533.06;;;20.17;100.00
39243;BME280;29823;47.404;8.566;2022-07-23T00:52:46;96529.03;;;19.91;100.00
39243;BME280;29823;47.404;8.566;2022-07-23T00:55:14;96515.97;;;19.93;100.00
39243;BME280;29823;47.404;8.566;2022-07-23T00:57:42;96509.31;;;20.04;100.00
39243;BME280;29823;47.404;8.566;2022-07-23T01:00:13;96488.44;;;20.23;100.00
39243;BME280;29823;47.404;8.566;2022-07-23T01:02:41;96474.72;;;20.33;100.00
39243;BME280;29823;47.404;8.566;2022-07-23T01:05:10;96476.84;;;20.18;100.00
39243;BME280;29823;47.404;8.566;2022-07-23T01:07:38;96465.25;;;20.31;100.00
39243;BME280;29823;47.404;8.566;2022-07-23T01:10:06;96462.31;;;20.27;100.00
39243;BME280;29823;47.404;8.566;2022-07-23T01:12:55;96474.13;;;20.18;100.00
39243;BME280;29823;47.404;8.566;2022-07-23T01:15:23;96484.78;;;20.14;100.00
39243;BME280;29823;47.404;8.566;2022-07-23T01:17:51;96480.75;;;19.88;100.00
39243;BME280;29823;47.404;8.566;2022-07-23T01:20:21;96491.13;;;20.05;100.00
39243;BME280;29823;47.404;8.566;2022-07-23T01:22:51;96491.38;;;19.85;100.00
39243;BME280;29823;47.404;8.566;2022-07-23T01:25:19;96481.44;;;19.52;100.00
39243;BME280;29823;47.404;8.566;2022-07-23T01:27:48;96479.34;;;19.91;100.00
39243;BME280;29823;47.404;8.566;2022-07-23T01:30:16;96479.28;;;19.96;100.00
39243;BME280;29823;47.404;8.566;2022-07-23T01:32:44;96473.63;;;19.92;100.00
39243;BME280;29823;47.404;8.566;2022-07-23T01:35:12;96455.81;;;19.86;100.00
39243;BME280;29823;47.404;8.566;2022-07-23T01:37:40;96454.31;;;19.75;100.00
39243;BME280;29823;47.404;8.566;2022-07-23T01:40:09;96453.22;;;19.76;100.00
39243;BME280;29823;47.404;8.566;2022-07-23T01:42:37;96467.53;;;19.58;100.00
39243;BME280;29823;47.404;8.566;2022-07-23T01:45:05;96471.22;;;19.44;100.00
39243;BME280;29823;47.404;8.566;2022-07-23T01:47:33;96475.59;;;19.63;100.00
39243;BME280;29823;47.404;8.566;2022-07-23T01:50:01;96483.19;;;19.66;100.00
39243;BME280;29823;47.404;8.566;2022-07-23T01:52:29;96493.69;;;19.49;100.00
39243;BME280;29823;47.404;8.566;2022-07-23T01:54:57;96491.16;;;19.58;100.00
39243;BME280;29823;47.404;8.566;2022-07-23T01:57:26;96480.28;;;19.81;100.00
39243;BME280;29823;47.404;8.566;2022-07-23T01:59:54;96473.72;;;19.87;100.00
39243;BME280;29823;47.404;8.566;2022-07-23T02:02:21;96480.25;;;19.86;100.00
39243;BME280;29823;47.404;8.566;2022-07-23T02:04:50;96481.25;;;19.67;100.00
39243;BME280;29823;47.404;8.566;2022-07-23T02:07:17;96485.59;;;19.91;100.00
39243;BME280;29823;47.404;8.566;2022-07-23T02:09:45;96483.41;;;19.93;100.00
39243;BME280;29823;47.404;8.566;2022-07-23T02:12:14;96478.41;;;20.24;100.00
39243;BME280;29823;47.404;8.566;2022-07-23T02:14:43;96473.09;;;19.90;100.00
39243;BME280;29823;47.404;8.566;2022-07-23T02:17:11;96474.75;;;19.68;100.00
39243;BME280;29823;47.404;8.566;2022-07-23T02:19:38;96472.22;;;19.76;100.00
39243;BME280;29823;47.404;8.566;2022-07-23T02:22:06;96467.47;;;19.87;100.00
39243;BME280;29823;47.404;8.566;2022-07-23T02:24:34;96477.16;;;19.93;100.00
39243;BME280;29823;47.404;8.566;2022-07-23T02:27:02;96478.66;;;19.80;100.00
39243;BME280;29823;47.404;8.566;2022-07-23T02:29:30;96489.16;;;19.63;100.00
39243;BME280;29823;47.404;8.566;2022-07-23T02:31:59;96495.53;;;19.54;100.00
39243;BME280;29823;47.404;8.566;2022-07-23T02:34:27;96499.41;;;19.71;100.00
39243;BME280;29823;47.404;8.566;2022-07-23T02:36:54;96482.03;;;19.72;100.00
39243;BME280;29823;47.404;8.566;2022-07-23T02:39:22;96473.22;;;19.80;100.00
39243;BME280;29823;47.404;8.566;2022-07-23T02:41:50;96469.97;;;19.60;100.00
39243;BME280;29823;47.404;8.566;2022-07-23T02:44:18;96480.69;;;19.70;100.00
39243;BME280;29823;47.404;8.566;2022-07-23T02:46:45;96478.84;;;19.65;100.00
39243;BME280;29823;47.404;8.566;2022-07-23T02:49:15;96501.41;;;19.84;100.00
39243;BME280;29823;47.404;8.566;2022-07-23T02:51:43;96514.78;;;19.52;100.00
39243;BME280;29823;47.404;8.566;2022-07-23T02:54:10;96520.13;;;19.62;100.00
39243;BME280;29823;47.404;8.566;2022-07-23T02:56:38;96514.47;;;19.59;100.00
39243;BME280;29823;47.404;8.566;2022-07-23T02:59:06;96496.13;;;19.22;100.00
39243;BME280;29823;47.404;8.566;2022-07-23T03:01:34;96511.19;;;19.00;100.00
39243;BME280;29823;47.404;8.566;2022-07-23T03:04:02;96519.28;;;19.05;100.00
39243;BME280;29823;47.404;8.566;2022-07-23T03:06:31;96529.00;;;19.11;100.00
39243;BME280;29823;47.404;8.566;2022-07-23T03:08:59;96539.72;;;18.92;100.00
39243;BME280;29823;47.404;8.566;2022-07-23T03:11:28;96549.34;;;19.08;100.00
39243;BME280;29823;47.404;8.566;2022-07-23T03:13:55;96552.78;;;19.19;100.00
39243;BME280;29823;47.404;8.566;2022-07-23T03:16:23;96551.19;;;19.13;100.00
39243;BME280;29823;47.404;8.566;2022-07-23T03:18:51;96561.47;;;19.16;100.00
39243;BME280;29823;47.404;8.566;2022-07-23T03:21:19;96560.81;;;19.00;100.00
39243;BME280;29823;47.404;8.566;2022-07-23T03:23:48;96534.59;;;19.24;100.00
39243;BME280;29823;47.404;8.566;2022-07-23T03:26:15;96510.97;;;19.30;100.00
39243;BME280;29823;47.404;8.566;2022-07-23T03:28:43;96492.78;;;19.30;100.00
39243;BME280;29823;47.404;8.566;2022-07-23T03:31:11;96492.28;;;19.28;100.00
39243;BME280;29823;47.404;8.566;2022-07-23T03:33:39;96480.47;;;19.09;100.00
39243;BME280;29823;47.404;8.566;2022-07-23T03:36:08;96495.84;;;18.90;100.00
39243;BME280;29823;47.404;8.566;2022-07-23T03:38:36;96505.63;;;18.86;100.00
39243;BME280;29823;47.404;8.566;2022-07-23T03:41:05;96503.03;;;19.05;100.00
39243;BME280;29823;47.404;8.566;2022-07-23T03:43:33;96480.97;;;19.16;100.00
39243;BME280;29823;47.404;8.566;2022-07-23T03:46:01;96471.88;;;19.02;100.00
39243;BME280;29823;47.404;8.566;2022-07-23T03:48:28;96480.16;;;18.87;100.00
39243;BME280;29823;47.404;8.566;2022-07-23T03:50:56;96493.56;;;18.69;100.00
39243;BME280;29823;47.404;8.566;2022-07-23T03:53:24;96508.84;;;18.88;100.00
39243;BME280;29823;47.404;8.566;2022-07-23T03:55:52;96503.69;;;18.92;100.00
39243;BME280;29823;47.404;8.566;2022-07-23T03:58:21;96491.47;;;18.94;100.00
39243;BME280;29823;47.404;8.566;2022-07-23T04:00:49;96509.81;;;19.02;100.00
39243;BME280;29823;47.404;8.566;2022-07-23T04:03:17;96526.16;;;18.92;100.00
39243;BME280;29823;47.404;8.566;2022-07-23T04:05:45;96558.91;;;18.96;100.00
39243;BME280;29823;47.404;8.566;2022-07-23T04:08:13;96572.13;;;19.07;100.00
39243;BME280;29823;47.404;8.566;2022-07-23T04:10:40;96577.22;;;19.14;100.00
39243;BME280;29823;47.404;8.566;2022-07-23T04:13:09;96566.13;;;19.10;100.00
39243;BME280;29823;47.404;8.566;2022-07-23T04:15:38;96552.00;;;19.13;100.00
39243;BME280;29823;47.404;8.566;2022-07-23T04:18:06;96558.22;;;19.19;100.00
39243;BME280;29823;47.404;8.566;2022-07-23T04:20:34;96551.97;;;19.18;100.00
39243;BME280;29823;47.404;8.566;2022-07-23T04:23:06;96545.72;;;19.18;100.00
39243;BME280;29823;47.404;8.566;2022-07-23T04:25:36;96552.28;;;19.12;100.00
39243;BME280;29823;47.404;8.566;2022-07-23T04:28:04;96569.88;;;19.14;100.00
39243;BME280;29823;47.404;8.566;2022-07-23T04:30:31;96575.28;;;19.19;100.00
39243;BME280;29823;47.404;8.566;2022-07-23T04:33:01;96575.41;;;18.99;100.00
39243;BME280;29823;47.404;8.566;2022-07-23T04:35:32;96585.72;;;19.02;100.00
39243;BME280;29823;47.404;8.566;2022-07-23T04:38:00;96606.22;;;19.13;100.00
39243;BME280;29823;47.404;8.566;2022-07-23T04:40:29;96601.34;;;19.10;100.00
39243;BME280;29823;47.404;8.566;2022-07-23T04:42:57;96611.19;;;19.01;100.00
39243;BME280;29823;47.404;8.566;2022-07-23T04:45:24;96633.81;;;19.20;100.00
39243;BME280;29823;47.404;8.566;2022-07-23T04:47:55;96650.38;;;19.19;100.00
39243;BME280;29823;47.404;8.566;2022-07-23T04:50:25;96668.53;;;19.23;100.00
39243;BME280;29823;47.404;8.566;2022-07-23T04:52:53;96656.00;;;19.32;100.00
39243;BME280;29823;47.404;8.566;2022-07-23T04:55:21;96662.59;;;19.21;100.00
39243;BME280;29823;47.404;8.566;2022-07-23T04:57:49;96648.50;;;19.14;100.00
39243;BME280;29823;47.404;8.566;2022-07-23T05:00:17;96655.03;;;19.13;100.00
39243;BME280;29823;47.404;8.566;2022-07-23T05:02:44;96640.09;;;19.16;100.00
39243;BME280;29823;47.404;8.566;2022-07-23T05:05:12;96627.53;;;19.35;100.00
39243;BME280;29823;47.404;8.566;2022-07-23T05:07:42;96632.84;;;19.06;100.00
39243;BME280;29823;47.404;8.566;2022-07-23T05:10:10;96636.16;;;18.93;100.00
39243;BME280;29823;47.404;8.566;2022-07-23T05:12:38;96645.28;;;19.12;100.00
39243;BME280;29823;47.404;8.566;2022-07-23T05:15:06;96646.47;;;18.96;100.00
39243;BME280;29823;47.404;8.566;2022-07-23T05:17:34;96648.84;;;19.08;100.00
39243;BME280;29823;47.404;8.566;2022-07-23T05:20:02;96641.53;;;19.03;100.00
39243;BME280;29823;47.404;8.566;2022-07-23T05:22:30;96638.22;;;19.11;100.00
39243;BME280;29823;47.404;8.566;2022-07-23T05:24:59;96658.41;;;18.90;100.00
39243;BME280;29823;47.404;8.566;2022-07-23T05:27:27;96639.91;;;19.02;100.00
39243;BME280;29823;47.404;8.566;2022-07-23T05:29:55;96642.81;;;19.16;100.00
39243;BME280;29823;47.404;8.566;2022-07-23T05:32:23;96669.06;;;18.77;100.00
39243;BME280;29823;47.404;8.566;2022-07-23T05:34:51;96662.59;;;18.68;100.00
39243;BME280;29823;47.404;8.566;2022-07-23T05:37:19;96669.00;;;18.87;100.00
39243;BME280;29823;47.404;8.566;2022-07-23T05:39:46;96650.75;;;19.02;100.00
39243;BME280;29823;47.404;8.566;2022-07-23T05:42:16;96653.97;;;19.04;100.00
39243;BME280;29823;47.404;8.566;2022-07-23T05:44:43;96635.59;;;19.01;100.00
39243;BME280;29823;47.404;8.566;2022-07-23T05:47:11;96597.38;;;19.03;100.00
39243;BME280;29823;47.404;8.566;2022-07-23T05:49:39;96589.03;;;18.94;100.00
39243;BME280;29823;47.404;8.566;2022-07-23T05:52:07;96600.69;;;18.90;100.00
39243;BME280;29823;47.404;8.566;2022-07-23T05:54:35;96586.84;;;18.96;100.00
39243;BME280;29823;47.404;8.566;2022-07-23T05:57:03;96589.50;;;19.01;100.00
39243;BME280;29823;47.404;8.566;2022-07-23T05:59:32;96610.63;;;19.04;100.00
39243;BME280;29823;47.404;8.566;2022-07-23T06:02:00;96604.66;;;19.07;100.00
39243;BME280;29823;47.404;8.566;2022-07-23T06:04:28;96616.22;;;19.18;100.00
39243;BME280;29823;47.404;8.566;2022-07-23T06:06:56;96633.28;;;19.23;100.00
39243;BME280;29823;47.404;8.566;2022-07-23T06:09:24;96642.63;;;19.02;100.00
39243;BME280;29823;47.404;8.566;2022-07-23T06:11:52;96647.38;;;18.77;100.00
39243;BME280;29823;47.404;8.566;2022-07-23T06:14:19;96662.88;;;18.66;100.00
39243;BME280;29823;47.404;8.566;2022-07-23T06:16:48;96652.03;;;18.66;100.00
39243;BME280;29823;47.404;8.566;2022-07-23T06:19:16;96659.69;;;18.54;100.00
39243;BME280;29823;47.404;8.566;2022-07-23T06:21:44;96680.16;;;18.80;100.00
39243;BME280;29823;47.404;8.566;2022-07-23T06:24:13;96680.41;;;18.79;100.00
39243;BME280;29823;47.404;8.566;2022-07-23T06:26:42;96689.91;;;18.76;100.00
39243;BME280;29823;47.404;8.566;2022-07-23T06:29:09;96709.69;;;18.82;100.00
39243;BME280;29823;47.404;8.566;2022-07-23T06:31:37;96710.72;;;18.86;100.00
39243;BME280;29823;47.404;8.566;2022-07-23T06:34:07;96712.75;;;19.14;100.00
39243;BME280;29823;47.404;8.566;2022-07-23T06:36:34;96690.66;;;18.92;100.00
39243;BME280;29823;47.404;8.566;2022-07-23T06:39:04;96692.81;;;18.90;100.00
39243;BME280;29823;47.404;8.566;2022-07-23T06:41:34;96688.72;;;18.97;100.00
39243;BME280;29823;47.404;8.566;2022-07-23T06:44:02;96676.75;;;19.03;100.00
39243;BME280;29823;47.404;8.566;2022-07-23T06:46:30;96677.03;;;19.02;100.00
39243;BME280;29823;47.404;8.566;2022-07-23T06:48:58;96680.16;;;18.80;100.00
39243;BME280;29823;47.404;8.566;2022-07-23T06:51:28;96691.19;;;18.94;100.00
39243;BME280;29823;47.404;8.566;2022-07-23T06:53:56;96707.22;;;18.85;100.00
39243;BME280;29823;47.404;8.566;2022-07-23T06:56:25;96691.22;;;18.89;100.00
39243;BME280;29823;47.404;8.566;2022-07-23T06:58:52;96702.31;;;18.87;100.00
39243;BME280;29823;47.404;8.566;2022-07-23T07:01:20;96719.91;;;18.90;100.00
39243;BME280;29823;47.404;8.566;2022-07-23T07:03:48;96710.63;;;19.06;100.00
39243;BME280;29823;47.404;8.566;2022-07-23T07:06:16;96713.06;;;19.07;100.00
39243;BME280;29823;47.404;8.566;2022-07-23T07:08:45;96701.09;;;19.13;100.00
39243;BME280;29823;47.404;8.566;2022-07-23T07:11:13;96722.75;;;19.23;100.00
39243;BME280;29823;47.404;8.566;2022-07-23T07:13:41;96718.59;;;19.41;100.00
39243;BME280;29823;47.404;8.566;2022-07-23T07:16:08;96725.66;;;19.75;100.00
39243;BME280;29823;47.404;8.566;2022-07-23T07:18:36;96726.53;;;19.99;100.00
39243;BME280;29823;47.404;8.566;2022-07-23T07:21:05;96734.63;;;20.04;100.00
39243;BME280;29823;47.404;8.566;2022-07-23T07:23:32;96741.75;;;19.95;100.00
39243;BME280;29823;47.404;8.566;2022-07-23T07:26:02;96749.09;;;19.95;100.00
39243;BME280;29823;47.404;8.566;2022-07-23T07:28:29;96737.94;;;19.96;100.00
39243;BME280;29823;47.404;8.566;2022-07-23T07:30:57;96745.97;;;20.11;100.00
39243;BME280;29823;47.404;8.566;2022-07-23T07:33:25;96742.16;;;20.12;100.00
39243;BME280;29823;47.404;8.566;2022-07-23T07:35:53;96741.16;;;20.03;100.00
39243;BME280;29823;47.404;8.566;2022-07-23T07:38:21;96755.34;;;19.90;100.00
39243;BME280;29823;47.404;8.566;2022-07-23T07:40:48;96755.03;;;19.97;100.00
39243;BME280;29823;47.404;8.566;2022-07-23T07:43:18;96748.50;;;19.98;100.00
39243;BME280;29823;47.404;8.566;2022-07-23T07:45:45;96757.38;;;20.13;100.00
39243;BME280;29823;47.404;8.566;2022-07-23T07:48:13;96760.16;;;20.03;100.00
39243;BME280;29823;47.404;8.566;2022-07-23T07:50:41;96754.41;;;20.10;100.00
39243;BME280;29823;47.404;8.566;2022-07-23T07:53:09;96754.84;;;20.22;100.00
39243;BME280;29823;47.404;8.566;2022-07-23T07:55:37;96751.84;;;20.23;100.00
39243;BME280;29823;47.404;8.566;2022-07-23T07:58:05;96751.09;;;20.18;100.00
39243;BME280;29823;47.404;8.566;2022-07-23T08:00:34;96741.84;;;20.19;100.00
39243;BME280;29823;47.404;8.566;2022-07-23T08:03:02;96729.50;;;20.31;100.00
39243;BME280;29823;47.404;8.566;2022-07-23T08:05:31;96735.50;;;20.28;100.00
39243;BME280;29823;47.404;8.566;2022-07-23T08:07:59;96729.09;;;20.19;100.00
39243;BME280;29823;47.404;8.566;2022-07-23T08:10:28;96732.03;;;20.23;100.00
39243;BME280;29823;47.404;8.566;2022-07-23T08:12:58;96715.88;;;20.36;100.00
39243;BME280;29823;47.404;8.566;2022-07-23T08:15:29;96710.34;;;20.46;100.00
39243;BME280;29823;47.404;8.566;2022-07-23T08:17:58;96713.44;;;20.58;100.00
39243;BME280;29823;47.404;8.566;2022-07-23T08:20:27;96717.44;;;20.66;100.00
39243;BME280;29823;47.404;8.566;2022-07-23T08:22:56;96716.56;;;20.70;100.00
39243;BME280;29823;47.404;8.566;2022-07-23T08:25:26;96716.78;;;20.74;100.00
39243;BME280;29823;47.404;8.566;2022-07-23T08:27:54;96725.94;;;20.59;100.00
39243;BME280;29823;47.404;8.566;2022-07-23T08:30:23;96727.25;;;20.62;100.00
39243;BME280;29823;47.404;8.566;2022-07-23T08:32:52;96742.69;;;20.66;100.00
39243;BME280;29823;47.404;8.566;2022-07-23T08:35:27;96729.22;;;20.80;100.00
39243;BME280;29823;47.404;8.566;2022-07-23T08:37:56;96731.47;;;20.73;100.00
39243;BME280;29823;47.404;8.566;2022-07-23T08:40:26;96744.19;;;20.77;100.00
39243;BME280;29823;47.404;8.566;2022-07-23T08:42:54;96740.81;;;20.90;100.00
39243;BME280;29823;47.404;8.566;2022-07-23T08:45:25;96748.22;;;20.80;100.00
39243;BME280;29823;47.404;8.566;2022-07-23T08:47:54;96750.09;;;20.84;100.00
39243;BME280;29823;47.404;8.566;2022-07-23T08:50:24;96747.44;;;20.56;100.00
39243;BME280;29823;47.404;8.566;2022-07-23T08:52:54;96753.56;;;20.66;100.00
39243;BME280;29823;47.404;8.566;2022-07-23T08:55:23;96753.00;;;20.69;100.00
39243;BME280;29823;47.404;8.566;2022-07-23T08:57:51;96754.84;;;20.74;100.00
39243;BME280;29823;47.404;8.566;2022-07-23T09:00:21;96739.84;;;20.53;100.00
39243;BME280;29823;47.404;8.566;2022-07-23T09:02:49;96752.66;;;20.76;100.00
39243;BME280;29823;47.404;8.566;2022-07-23T09:05:18;96754.25;;;20.77;100.00
39243;BME280;29823;47.404;8.566;2022-07-23T09:08:09;96743.53;;;20.90;100.00
39243;BME280;29823;47.404;8.566;2022-07-23T09:10:49;96735.41;;;20.85;100.00
39243;BME280;29823;47.404;8.566;2022-07-23T09:13:34;96723.50;;;20.81;100.00
39243;BME280;29823;47.404;8.566;2022-07-23T09:16:05;96724.16;;;20.73;100.00
39243;BME280;29823;47.404;8.566;2022-07-23T09:18:39;96742.56;;;20.76;100.00
39243;BME280;29823;47.404;8.566;2022-07-23T09:21:19;96732.94;;;20.89;100.00
39243;BME280;29823;47.404;8.566;2022-07-23T09:23:54;96742.78;;;20.80;100.00
39243;BME280;29823;47.404;8.566;2022-07-23T09:26:31;96742.94;;;20.93;100.00
39243;BME280;29823;47.404;8.566;2022-07-23T09:29:04;96741.31;;;20.92;100.00
39243;BME280;29823;47.404;8.566;2022-07-23T09:31:44;96740.50;;;20.68;100.00
39243;BME280;29823;47.404;8.566;2022-07-23T09:34:14;96742.44;;;20.91;100.00
39243;BME280;29823;47.404;8.566;2022-07-23T09:36:42;96746.41;;;20.75;100.00
39243;BME280;29823;47.404;8.566;2022-07-23T09:39:13;96744.06;;;20.87;100.00
39243;BME280;29823;47.404;8.566;2022-07-23T09:41:43;96736.50;;;20.84;100.00
39243;BME280;29823;47.404;8.566;2022-07-23T09:44:14;96734.03;;;20.64;100.00
39243;BME280;29823;47.404;8.566;2022-07-23T09:46:43;96747.88;;;20.39;100.00
39243;BME280;29823;47.404;8.566;2022-07-23T09:49:13;96747.03;;;20.44;100.00
39243;BME280;29823;47.404;8.566;2022-07-23T09:51:44;96745.66;;;20.18;100.00
39243;BME280;29823;47.404;8.566;2022-07-23T09:54:39;96747.50;;;20.22;100.00
39243;BME280;29823;47.404;8.566;2022-07-23T09:57:09;96742.56;;;20.29;100.00
39243;BME280;29823;47.404;8.566;2022-07-23T09:59:39;96738.16;;;20.33;100.00
39243;BME280;29823;47.404;8.566;2022-07-23T10:02:09;96729.47;;;20.08;100.00
39243;BME280;29823;47.404;8.566;2022-07-23T10:04:39;96710.91;;;20.43;100.00
39243;BME280;29823;47.404;8.566;2022-07-23T10:07:08;96736.06;;;20.54;100.00
39243;BME280;29823;47.404;8.566;2022-07-23T10:09:39;96758.59;;;20.78;100.00
39243;BME280;29823;47.404;8.566;2022-07-23T10:12:11;96750.16;;;20.79;100.00
39243;BME280;29823;47.404;8.566;2022-07-23T10:15:02;96742.22;;;20.83;100.00
39243;BME280;29823;47.404;8.566;2022-07-23T10:17:31;96745.34;;;20.71;100.00
39243;BME280;29823;47.404;8.566;2022-07-23T10:19:59;96750.81;;;20.48;100.00
39243;BME280;29823;47.404;8.566;2022-07-23T10:22:29;96760.25;;;20.74;100.00
39243;BME280;29823;47.404;8.566;2022-07-23T10:25:10;96760.50;;;20.54;100.00
39243;BME280;29823;47.404;8.566;2022-07-23T10:27:49;96748.22;;;20.80;100.00
39243;BME280;29823;47.404;8.566;2022-07-23T10:30:21;96761.31;;;20.78;100.00
39243;BME280;29823;47.404;8.566;2022-07-23T10:32:53;96760.06;;;20.94;100.00
39243;BME280;29823;47.404;8.566;2022-07-23T10:35:29;96742.94;;;20.93;100.00
39243;BME280;29823;47.404;8.566;2022-07-23T10:38:06;96739.91;;;20.71;100.00
39243;BME280;29823;47.404;8.566;2022-07-23T10:40:36;96766.91;;;20.86;100.00
39243;BME280;29823;47.404;8.566;2022-07-23T10:43:13;96757.31;;;20.70;100.00
39243;BME280;29823;47.404;8.566;2022-07-23T10:45:47;96760.84;;;20.99;100.00
39243;BME280;29823;47.404;8.566;2022-07-23T10:48:17;96763.66;;;20.89;100.00
39243;BME280;29823;47.404;8.566;2022-07-23T10:51:06;96765.94;;;20.77;100.00
39243;BME280;29823;47.404;8.566;2022-07-23T10:53:53;96751.16;;;20.88;100.00
39243;BME280;29823;47.404;8.566;2022-07-23T10:56:50;96757.63;;;20.92;100.00
39243;BME280;29823;47.404;8.566;2022-07-23T11:02:36;96767.00;;;21.05;100.00
39243;BME280;29823;47.404;8.566;2022-07-23T11:05:06;96761.84;;;21.03;100.00
39243;BME280;29823;47.404;8.566;2022-07-23T11:07:35;96744.53;;;21.18;100.00
39243;BME280;29823;47.404;8.566;2022-07-23T11:10:03;96741.47;;;21.43;100.00
39243;BME280;29823;47.404;8.566;2022-07-23T11:12:36;96736.69;;;21.53;100.00
39243;BME280;29823;47.404;8.566;2022-07-23T11:15:06;96738.09;;;22.01;100.00
39243;BME280;29823;47.404;8.566;2022-07-23T11:17:36;96745.38;;;22.97;100.00
39243;BME280;29823;47.404;8.566;2022-07-23T11:20:19;96742.81;;;24.20;100.00
39243;BME280;29823;47.404;8.566;2022-07-23T11:22:52;96740.31;;;24.32;100.00
39243;BME280;29823;47.404;8.566;2022-07-23T11:25:33;96736.31;;;25.47;100.00
39243;BME280;29823;47.404;8.566;2022-07-23T11:28:20;96732.00;;;27.23;100.00
39243;BME280;29823;47.404;8.566;2022-07-23T11:30:52;96732.84;;;27.44;100.00
39243;BME280;29823;47.404;8.566;2022-07-23T11:33:21;96727.09;;;28.63;100.00
39243;BME280;29823;47.404;8.566;2022-07-23T11:36:00;96736.03;;;28.48;100.00
39243;BME280;29823;47.404;8.566;2022-07-23T11:38:30;96724.22;;;28.48;100.00
39243;BME280;29823;47.404;8.566;2022-07-23T11:40:59;96729.94;;;29.11;100.00
39243;BME280;29823;47.404;8.566;2022-07-23T11:43:28;96729.16;;;28.54;95.27
39243;BME280;29823;47.404;8.566;2022-07-23T11:45:58;96731.09;;;28.21;100.00
39243;BME280;29823;47.404;8.566;2022-07-23T11:48:29;96735.56;;;28.58;89.42
39243;BME280;29823;47.404;8.566;2022-07-23T11:51:06;96734.72;;;29.50;94.66
39243;BME280;29823;47.404;8.566;2022-07-23T11:53:34;96729.84;;;30.93;81.32
39243;BME280;29823;47.404;8.566;2022-07-23T11:56:05;96727.44;;;30.76;82.37
39243;BME280;29823;47.404;8.566;2022-07-23T11:58:35;96726.06;;;32.17;66.54
39243;BME280;29823;47.404;8.566;2022-07-23T12:01:04;96721.88;;;31.19;74.61
39243;BME280;29823;47.404;8.566;2022-07-23T12:03:32;96721.94;;;31.07;71.72
39243;BME280;29823;47.404;8.566;2022-07-23T12:06:00;96716.28;;;31.50;72.00
39243;BME280;29823;47.404;8.566;2022-07-23T12:08:28;96719.56;;;31.90;69.08
39243;BME280;29823;47.404;8.566;2022-07-23T12:10:56;96727.28;;;32.19;68.02
39243;BME280;29823;47.404;8.566;2022-07-23T12:13:24;96730.34;;;32.71;64.68
39243;BME280;29823;47.404;8.566;2022-07-23T12:15:54;96725.31;;;33.22;63.11
39243;BME280;29823;47.404;8.566;2022-07-23T12:18:26;96724.66;;;33.54;58.75
39243;BME280;29823;47.404;8.566;2022-07-23T12:20:56;96720.50;;;34.92;50.97
39243;BME280;29823;47.404;8.566;2022-07-23T12:23:26;96716.00;;;33.59;53.97
39243;BME280;29823;47.404;8.566;2022-07-23T12:25:54;96714.72;;;31.68;58.59
39243;BME280;29823;47.404;8.566;2022-07-23T12:28:28;96725.94;;;33.34;57.43
39243;BME280;29823;47.404;8.566;2022-07-23T12:30:57;96712.72;;;32.60;60.36
39243;BME280;29823;47.404;8.566;2022-07-23T12:33:27;96716.16;;;32.54;62.23
39243;BME280;29823;47.404;8.566;2022-07-23T12:35:56;96714.78;;;34.42;57.26
39243;BME280;29823;47.404;8.566;2022-07-23T12:38:25;96708.50;;;34.81;53.03
39243;BME280;29823;47.404;8.566;2022-07-23T12:40:58;96710.81;;;33.80;54.42
39243;BME280;29823;47.404;8.566;2022-07-23T12:43:28;96710.47;;;33.59;51.81
39243;BME280;29823;47.404;8.566;2022-07-23T12:46:05;96717.66;;;33.15;49.43
39243;BME280;29823;47.404;8.566;2022-07-23T12:48:34;96701.47;;;33.40;52.78
39243;BME280;29823;47.404;8.566;2022-07-23T12:51:06;96702.28;;;33.40;53.40
39243;BME280;29823;47.404;8.566;2022-07-23T12:53:38;96699.59;;;33.73;51.46
39243;BME280;29823;47.404;8.566;2022-07-23T12:56:08;96693.28;;;35.12;50.24
39243;BME280;29823;47.404;8.566;2022-07-23T12:58:43;96698.31;;;33.67;52.71
39243;BME280;29823;47.404;8.566;2022-07-23T13:01:28;96685.81;;;35.73;45.40
39243;BME280;29823;47.404;8.566;2022-07-23T13:04:02;96687.88;;;35.87;45.92
39243;BME280;29823;47.404;8.566;2022-07-23T13:06:41;96682.53;;;35.10;48.13